AAL412 KSYR-KBOS
Flight info
| Callsign | AAL412 |
|---|---|
| Flight time | N/A |
| Altitude | 31000 |
| Route | LAMMS PONCT JFUND2 |
| Aircraft | B738/M-SDE2E3FGHIRWXY/LB1 |
Departure
| Time | 2026-04-25 01:11 |
|---|---|
| Airport | Syracuse Hancock International Airport (KSYR) |
Arrival
| Time | N/A |
|---|---|
| Airport | Boston Logan International Airport (KBOS) |
| Time | Latitude | Longitude | Altitude | Speed | Heading |
|---|---|---|---|---|---|
| 2026-04-25 00:53 | 43.11240 | -76.11004 | 417 ft | 0 kts | 358° |
| 2026-04-25 01:02 | 43.11229 | -76.11003 | 417 ft | 2 kts | 358° |
| 2026-04-25 01:02 | 43.11214 | -76.11002 | 417 ft | 2 kts | 358° |
| 2026-04-25 01:02 | 43.11199 | -76.11002 | 417 ft | 2 kts | 359° |
| 2026-04-25 01:03 | 43.11184 | -76.11008 | 417 ft | 2 kts | 37° |
| 2026-04-25 01:03 | 43.11174 | -76.11023 | 417 ft | 2 kts | 67° |
| 2026-04-25 01:03 | 43.11172 | -76.11034 | 417 ft | 1 kts | 85° |
| 2026-04-25 01:03 | 43.11172 | -76.11043 | 417 ft | 0 kts | 85° |
| 2026-04-25 01:08 | 43.11172 | -76.11040 | 417 ft | 3 kts | 83° |
| 2026-04-25 01:08 | 43.11209 | -76.10883 | 417 ft | 26 kts | 82° |
| 2026-04-25 01:09 | 43.11100 | -76.10719 | 415 ft | 29 kts | 178° |
| 2026-04-25 01:09 | 43.11010 | -76.10530 | 411 ft | 31 kts | 87° |
| 2026-04-25 01:09 | 43.11025 | -76.10187 | 407 ft | 41 kts | 86° |
| 2026-04-25 01:09 | 43.11039 | -76.09757 | 404 ft | 50 kts | 88° |
| 2026-04-25 01:10 | 43.11046 | -76.09333 | 400 ft | 31 kts | 102° |
| 2026-04-25 01:10 | 43.11018 | -76.09282 | 399 ft | 0 kts | 176° |
| 2026-04-25 01:10 | 43.10979 | -76.09286 | 399 ft | 19 kts | 203° |
| 2026-04-25 01:10 | 43.10925 | -76.09662 | 402 ft | 72 kts | 267° |
| 2026-04-25 01:11 | 43.10903 | -76.10641 | 412 ft | 132 kts | 268° |
| 2026-04-25 01:11 | 43.10866 | -76.12093 | 471 ft | 170 kts | 268° |
| 2026-04-25 01:11 | 43.10792 | -76.13761 | 891 ft | 178 kts | 268° |
| 2026-04-25 01:11 | 43.10720 | -76.15440 | 1284 ft | 175 kts | 268° |
| 2026-04-25 01:12 | 43.10646 | -76.17117 | 1724 ft | 179 kts | 268° |
| 2026-04-25 01:12 | 43.10565 | -76.18837 | 2185 ft | 184 kts | 268° |
| 2026-04-25 01:12 | 43.10484 | -76.20574 | 2674 ft | 187 kts | 268° |
| 2026-04-25 01:12 | 43.10399 | -76.22370 | 3164 ft | 192 kts | 268° |
| 2026-04-25 01:13 | 43.09992 | -76.24094 | 3574 ft | 200 kts | 226° |
| 2026-04-25 01:13 | 43.08895 | -76.25253 | 4042 ft | 205 kts | 206° |
| 2026-04-25 01:13 | 43.07427 | -76.25920 | 4056 ft | 238 kts | 186° |
| 2026-04-25 01:13 | 43.05698 | -76.25922 | 4047 ft | 266 kts | 169° |
| 2026-04-25 01:14 | 43.03873 | -76.25195 | 4013 ft | 274 kts | 153° |
| 2026-04-25 01:14 | 43.02274 | -76.23825 | 3994 ft | 267 kts | 138° |
| 2026-04-25 01:14 | 43.00855 | -76.22240 | 3996 ft | 265 kts | 139° |
| 2026-04-25 01:14 | 42.99438 | -76.20645 | 3993 ft | 265 kts | 138° |
| 2026-04-25 01:15 | 42.98014 | -76.19029 | 4273 ft | 264 kts | 134° |
| 2026-04-25 01:15 | 42.96855 | -76.17120 | 4605 ft | 268 kts | 124° |
| 2026-04-25 01:15 | 42.95924 | -76.14899 | 4945 ft | 270 kts | 108° |
| 2026-04-25 01:15 | 42.95494 | -76.12418 | 5370 ft | 271 kts | 92° |
| 2026-04-25 01:16 | 42.95325 | -76.09832 | 5833 ft | 276 kts | 93° |
| 2026-04-25 01:16 | 42.95125 | -76.07215 | 6293 ft | 282 kts | 93° |
| 2026-04-25 01:16 | 42.94913 | -76.04554 | 6761 ft | 287 kts | 92° |
| 2026-04-25 01:16 | 42.94694 | -76.01826 | 7259 ft | 291 kts | 92° |
| 2026-04-25 01:17 | 42.94474 | -75.99091 | 7728 ft | 295 kts | 92° |
| 2026-04-25 01:17 | 42.94246 | -75.96280 | 8222 ft | 298 kts | 92° |
| 2026-04-25 01:17 | 42.94013 | -75.93454 | 8699 ft | 301 kts | 91° |
| 2026-04-25 01:17 | 42.93785 | -75.90635 | 9189 ft | 303 kts | 91° |
| 2026-04-25 01:18 | 42.93552 | -75.87812 | 9821 ft | 299 kts | 91° |
| 2026-04-25 01:18 | 42.93319 | -75.85026 | 10385 ft | 297 kts | 90° |
| 2026-04-25 01:18 | 42.93092 | -75.82237 | 10955 ft | 294 kts | 90° |
| 2026-04-25 01:18 | 42.92868 | -75.79520 | 11511 ft | 290 kts | 89° |
| 2026-04-25 01:19 | 42.92641 | -75.76787 | 12085 ft | 286 kts | 89° |
| 2026-04-25 01:19 | 42.92417 | -75.74141 | 12645 ft | 281 kts | 88° |
| 2026-04-25 01:19 | 42.92202 | -75.71528 | 13193 ft | 276 kts | 88° |
| 2026-04-25 01:19 | 42.91988 | -75.68986 | 13738 ft | 269 kts | 87° |
| 2026-04-25 01:20 | 42.91779 | -75.66476 | 14296 ft | 261 kts | 87° |
| 2026-04-25 01:20 | 42.91574 | -75.64099 | 14827 ft | 252 kts | 85° |
| 2026-04-25 01:20 | 42.91377 | -75.61764 | 15345 ft | 241 kts | 84° |
| 2026-04-25 01:20 | 42.91188 | -75.59543 | 15656 ft | 241 kts | 84° |
| 2026-04-25 01:21 | 42.90988 | -75.57125 | 15191 ft | 276 kts | 90° |
| 2026-04-25 01:21 | 42.90526 | -75.54496 | 15213 ft | 300 kts | 103° |
| 2026-04-25 01:21 | 42.90016 | -75.51745 | 15644 ft | 296 kts | 84° |
| 2026-04-25 01:21 | 42.89990 | -75.48984 | 16042 ft | 297 kts | 79° |
| 2026-04-25 01:22 | 42.89903 | -75.46088 | 16428 ft | 310 kts | 84° |
| 2026-04-25 01:22 | 42.89728 | -75.43132 | 16777 ft | 322 kts | 85° |
| 2026-04-25 01:22 | 42.89498 | -75.40030 | 17106 ft | 334 kts | 86° |
| 2026-04-25 01:22 | 42.89239 | -75.36812 | 17435 ft | 347 kts | 87° |
| 2026-04-25 01:23 | 42.88964 | -75.33514 | 17812 ft | 356 kts | 88° |
| 2026-04-25 01:23 | 42.88672 | -75.30133 | 18237 ft | 365 kts | 88° |
| 2026-04-25 01:23 | 42.88367 | -75.26708 | 18682 ft | 371 kts | 88° |
| 2026-04-25 01:23 | 42.88059 | -75.23170 | 19133 ft | 378 kts | 88° |
| 2026-04-25 01:24 | 42.87748 | -75.19624 | 19601 ft | 383 kts | 88° |
| 2026-04-25 01:24 | 42.87427 | -75.16007 | 20097 ft | 387 kts | 88° |
| 2026-04-25 01:24 | 42.87105 | -75.12337 | 20590 ft | 391 kts | 88° |
| 2026-04-25 01:24 | 42.86775 | -75.08686 | 21076 ft | 394 kts | 88° |
| 2026-04-25 01:25 | 42.86441 | -75.04953 | 21559 ft | 397 kts | 87° |
| 2026-04-25 01:25 | 42.86107 | -75.01259 | 22047 ft | 398 kts | 87° |
| 2026-04-25 01:25 | 42.85774 | -74.97494 | 22527 ft | 401 kts | 87° |
| 2026-04-25 01:25 | 42.85435 | -74.93757 | 23016 ft | 401 kts | 88° |
| 2026-04-25 01:26 | 42.85092 | -74.90001 | 23500 ft | 402 kts | 87° |
| 2026-04-25 01:26 | 42.84752 | -74.86221 | 23976 ft | 402 kts | 88° |
| 2026-04-25 01:26 | 42.84405 | -74.82478 | 24466 ft | 401 kts | 87° |
| 2026-04-25 01:26 | 42.84065 | -74.78771 | 24939 ft | 399 kts | 87° |
| 2026-04-25 01:27 | 42.83723 | -74.75021 | 25442 ft | 397 kts | 87° |
| 2026-04-25 01:27 | 42.83379 | -74.71339 | 25929 ft | 394 kts | 86° |
| 2026-04-25 01:27 | 42.83031 | -74.67658 | 26422 ft | 391 kts | 86° |
| 2026-04-25 01:28 | 42.82360 | -74.60432 | 27384 ft | 381 kts | 85° |
| 2026-04-25 01:28 | 42.82027 | -74.56887 | 27854 ft | 374 kts | 85° |
| 2026-04-25 01:28 | 42.81700 | -74.53404 | 28335 ft | 366 kts | 84° |
| 2026-04-25 01:28 | 42.81379 | -74.50055 | 28805 ft | 357 kts | 83° |
| 2026-04-25 01:29 | 42.81066 | -74.46757 | 29255 ft | 347 kts | 82° |
| 2026-04-25 01:29 | 42.80764 | -74.43552 | 29653 ft | 335 kts | 82° |
| 2026-04-25 01:29 | 42.80178 | -74.37258 | 29687 ft | 341 kts | 82° |
| 2026-04-25 01:30 | 42.79874 | -74.34113 | 29825 ft | 336 kts | 82° |
| 2026-04-25 01:30 | 42.79567 | -74.30946 | 29873 ft | 337 kts | 83° |
| 2026-04-25 01:30 | 42.78934 | -74.24618 | 29638 ft | 341 kts | 82° |
| 2026-04-25 01:31 | 42.78793 | -74.21501 | 29372 ft | 343 kts | 86° |
| 2026-04-25 01:31 | 42.78653 | -74.18250 | 29163 ft | 336 kts | 72° |
| 2026-04-25 01:31 | 42.78496 | -74.15073 | 29426 ft | 339 kts | 86° |
| 2026-04-25 01:31 | 42.78113 | -74.11956 | 29554 ft | 337 kts | 92° |